createdAt,value
2023-03-13T00:01:14.768Z,99938.19
2023-03-13T00:03:41.734Z,99935.28
2023-03-13T00:06:08.936Z,99935.50
2023-03-13T00:08:35.793Z,99931.28
2023-03-13T00:11:07.549Z,99919.88
2023-03-13T00:13:34.470Z,99923.13
2023-03-13T00:16:10.369Z,99917.75
2023-03-13T00:18:37.505Z,99906.56
2023-03-13T00:21:09.066Z,99912.78
2023-03-13T00:23:37.655Z,99908.88
2023-03-13T00:26:06.981Z,99907.22
2023-03-13T00:28:34.870Z,99897.06
2023-03-13T00:31:02.516Z,99888.16
2023-03-13T00:33:29.364Z,99896.81
2023-03-13T00:36:04.412Z,99889.47
2023-03-13T00:38:31.552Z,99874.28
2023-03-13T00:40:59.693Z,99878.56
2023-03-13T00:43:27.313Z,99875.09
2023-03-13T00:45:54.079Z,99865.53
2023-03-13T00:48:21.204Z,99860.44
2023-03-13T00:50:47.913Z,99850.00
2023-03-13T00:53:15.064Z,99852.44
2023-03-13T00:55:59.589Z,99850.94
2023-03-13T00:58:29.146Z,99841.03
2023-03-13T01:00:56.153Z,99845.44
2023-03-13T01:03:25.774Z,99839.50
2023-03-13T01:06:00.063Z,99841.34
2023-03-13T01:08:28.110Z,99829.72
2023-03-13T01:11:01.059Z,99824.34
2023-03-13T01:13:35.022Z,99819.25
2023-03-13T01:16:06.851Z,99817.66
2023-03-13T01:18:34.822Z,99813.78
2023-03-13T01:21:01.926Z,99806.69
2023-03-13T01:23:29.041Z,99805.63
2023-03-13T01:25:56.448Z,99791.94
2023-03-13T01:28:25.165Z,99793.56
2023-03-13T01:30:52.316Z,99789.06
2023-03-13T01:33:19.378Z,99785.47
2023-03-13T01:35:47.695Z,99781.97
2023-03-13T01:38:14.861Z,99786.28
2023-03-13T01:40:46.690Z,99764.53
2023-03-13T01:43:26.577Z,99773.69
2023-03-13T01:46:02.506Z,99771.50
2023-03-13T01:49:04.901Z,99765.94
2023-03-13T01:51:50.403Z,99755.72
2023-03-13T01:54:25.695Z,99748.16
2023-03-13T01:57:06.071Z,99751.91
2023-03-13T01:59:43.561Z,99747.63
2023-03-13T02:02:11.648Z,99743.09
2023-03-13T02:04:42.873Z,99737.19
2023-03-13T02:07:16.172Z,99735.03
2023-03-13T02:09:49.295Z,99732.34
2023-03-13T02:12:24.242Z,99729.59
2023-03-13T02:14:51.908Z,99728.78
2023-03-13T02:17:18.770Z,99723.41
2023-03-13T02:19:51.948Z,99719.38
2023-03-13T02:22:39.203Z,99710.53
2023-03-13T02:25:22.971Z,99702.72
2023-03-13T02:28:16.919Z,99699.22
2023-03-13T02:30:45.779Z,99701.38
2023-03-13T02:33:14.311Z,99696.53
2023-03-13T02:35:43.176Z,99691.69
2023-03-13T02:38:16.932Z,99697.03
2023-03-13T02:40:47.888Z,99691.41
2023-03-13T02:43:31.043Z,99691.16
2023-03-13T02:46:08.098Z,99686.06
2023-03-13T02:48:41.068Z,99677.72
2023-03-13T02:51:31.616Z,99673.97
2023-03-13T02:54:10.406Z,99665.34
2023-03-13T02:56:40.812Z,99668.03
2023-03-13T02:59:08.804Z,99659.72
2023-03-13T03:01:39.121Z,99655.41
2023-03-13T03:04:06.629Z,99650.00
2023-03-13T03:06:33.452Z,99637.69
2023-03-13T03:09:03.120Z,99640.63
2023-03-13T03:11:33.150Z,99639.53
2023-03-13T03:14:05.342Z,99641.69
2023-03-13T03:16:37.137Z,99635.53
2023-03-13T03:19:08.933Z,99645.94
2023-03-13T03:21:35.744Z,99638.94
2023-03-13T03:24:03.609Z,99640.81
2023-03-13T03:26:30.449Z,99639.47
2023-03-13T03:28:57.414Z,99640.53
2023-03-13T03:31:24.473Z,99618.72
2023-03-13T03:33:51.582Z,99629.53
2023-03-13T03:36:22.275Z,99628.38
2023-03-13T03:38:50.355Z,99625.41
2023-03-13T03:41:20.150Z,99636.63
2023-03-13T03:43:47.771Z,99629.38
2023-03-13T03:46:17.663Z,99620.41
2023-03-13T03:48:44.409Z,99627.38
2023-03-13T03:51:13.105Z,99625.25
2023-03-13T03:53:42.552Z,99618.25
2023-03-13T03:56:09.703Z,99621.81
2023-03-13T03:58:41.245Z,99614.03
2023-03-13T04:01:28.258Z,99629.00
2023-03-13T04:03:54.893Z,99624.16
2023-03-13T04:06:21.793Z,99630.81
2023-03-13T04:08:49.316Z,99627.91
2023-03-13T04:11:20.099Z,99623.31
2023-03-13T04:13:50.291Z,99622.53
2023-03-13T04:16:17.561Z,99623.09
2023-03-13T04:18:45.752Z,99612.59
2023-03-13T04:21:12.514Z,99608.84
2023-03-13T04:23:46.689Z,99602.09
2023-03-13T04:26:14.546Z,99608.03
2023-03-13T04:28:41.911Z,99608.03
2023-03-13T04:31:10.809Z,99614.94
2023-03-13T04:33:53.616Z,99603.75
2023-03-13T04:36:33.807Z,99610.53
2023-03-13T04:39:26.886Z,99594.97
2023-03-13T04:42:29.698Z,99588.22
2023-03-13T04:45:12.425Z,99592.09
2023-03-13T04:47:52.149Z,99595.25
2023-03-13T04:50:42.148Z,99587.16
2023-03-13T04:53:21.596Z,99586.13
2023-03-13T04:56:04.781Z,99579.97
2023-03-13T04:58:44.184Z,99577.00
2023-03-13T05:01:33.531Z,99571.91
2023-03-13T05:04:22.816Z,99574.44
2023-03-13T05:06:55.176Z,99581.16
2023-03-13T05:09:40.459Z,99583.84
2023-03-13T05:12:30.398Z,99575.19
2023-03-13T05:15:13.181Z,99577.94
2023-03-13T05:18:08.663Z,99569.34
2023-03-13T05:20:42.228Z,99571.97
2023-03-13T05:23:19.607Z,99568.59
2023-03-13T05:26:00.161Z,99560.53
2023-03-13T05:28:41.003Z,99563.50
2023-03-13T05:31:25.186Z,99553.28
2023-03-13T05:34:15.424Z,99554.13
2023-03-13T05:37:00.596Z,99543.66
2023-03-13T05:39:50.336Z,99534.78
2023-03-13T05:42:36.289Z,99534.31
2023-03-13T05:45:22.531Z,99527.31
2023-03-13T05:48:03.659Z,99535.94
2023-03-13T05:50:48.979Z,99539.16
2023-03-13T05:53:41.800Z,99535.38
2023-03-13T05:56:23.071Z,99530.00
2023-03-13T05:58:58.714Z,99529.78
2023-03-13T06:01:43.819Z,99532.19
2023-03-13T06:04:20.782Z,99523.59
2023-03-13T06:06:48.075Z,99526.28
2023-03-13T06:09:16.280Z,99521.97
2023-03-13T06:11:44.502Z,99515.25
2023-03-13T06:14:11.249Z,99522.00
2023-03-13T06:17:05.420Z,99511.50
2023-03-13T06:19:32.526Z,99518.75
2023-03-13T06:21:59.144Z,99517.13
2023-03-13T06:24:25.824Z,99530.59
2023-03-13T06:26:52.473Z,99529.78
2023-03-13T06:29:19.373Z,99524.69
2023-03-13T06:31:46.177Z,99526.56
2023-03-13T06:34:13.957Z,99527.91
2023-03-13T06:36:40.817Z,99522.00
2023-03-13T06:39:08.340Z,99518.50
2023-03-13T06:41:35.382Z,99507.47
2023-03-13T06:44:02.412Z,99495.63
2023-03-13T06:46:29.419Z,99502.38
2023-03-13T06:48:58.092Z,99507.19
2023-03-13T06:51:26.277Z,99501.00
2023-03-13T06:53:53.057Z,99514.78
2023-03-13T06:56:21.627Z,99505.88
2023-03-13T06:58:49.468Z,99513.41
2023-03-13T07:01:17.695Z,99504.81
2023-03-13T07:03:44.527Z,99492.94
2023-03-13T07:06:12.440Z,99486.78
2023-03-13T07:08:39.565Z,99487.00
2023-03-13T07:11:08.767Z,99485.94
2023-03-13T07:13:36.139Z,99465.75
2023-03-13T07:16:08.288Z,99476.78
2023-03-13T07:18:36.168Z,99484.34
2023-03-13T07:21:07.174Z,99486.75
2023-03-13T07:23:35.732Z,99493.47
2023-03-13T07:26:08.266Z,99485.38
2023-03-13T07:28:37.689Z,99500.22
2023-03-13T07:31:19.670Z,99515.03
2023-03-13T07:33:46.556Z,99509.34
2023-03-13T07:36:15.280Z,99514.75
2023-03-13T07:38:43.728Z,99506.38
2023-03-13T07:41:13.255Z,99521.44
2023-03-13T07:43:40.028Z,99518.75
2023-03-13T07:46:08.220Z,99513.38
2023-03-13T07:48:37.631Z,99505.00
2023-03-13T07:51:06.800Z,99509.59
2023-03-13T07:53:34.098Z,99510.41
2023-03-13T07:56:04.346Z,99506.88
2023-03-13T07:58:34.265Z,99511.75
2023-03-13T08:01:01.710Z,99510.09
2023-03-13T08:03:30.056Z,99514.41
2023-03-13T08:06:01.221Z,99518.72
2023-03-13T08:08:28.861Z,99516.78
2023-03-13T08:11:07.575Z,99525.69
2023-03-13T08:13:35.581Z,99514.91
2023-03-13T08:16:09.148Z,99516.78
2023-03-13T08:18:37.800Z,99513.25
2023-03-13T08:21:06.713Z,99510.81
2023-03-13T08:23:36.164Z,99521.03
2023-03-13T08:26:15.025Z,99517.53
2023-03-13T08:28:43.561Z,99528.25
2023-03-13T08:31:15.916Z,99521.78
2023-03-13T08:33:43.971Z,99520.94
2023-03-13T08:36:15.626Z,99526.63
2023-03-13T08:38:45.867Z,99534.94
2023-03-13T08:41:14.964Z,99527.66
2023-03-13T08:43:42.056Z,99532.78
2023-03-13T08:46:08.813Z,99533.84
2023-03-13T08:48:35.712Z,99536.00
2023-03-13T08:51:05.027Z,99544.06
2023-03-13T08:53:32.641Z,99531.09
2023-03-13T08:56:00.087Z,99532.22
2023-03-13T08:58:27.887Z,99543.00
2023-03-13T09:00:55.239Z,99543.25
2023-03-13T09:03:22.130Z,99544.91
2023-03-13T09:05:55.904Z,99534.63
2023-03-13T09:08:23.411Z,99521.44
2023-03-13T09:10:56.501Z,99514.44
2023-03-13T09:13:24.026Z,99515.22
2023-03-13T09:16:01.559Z,99526.81
2023-03-13T09:18:29.300Z,99518.97
2023-03-13T09:20:55.965Z,99524.38
2023-03-13T09:23:23.427Z,99528.75
2023-03-13T09:25:53.752Z,99522.31
2023-03-13T09:28:20.473Z,99520.94
2023-03-13T09:30:47.209Z,99523.41
2023-03-13T09:33:13.906Z,99527.44
2023-03-13T09:35:40.803Z,99523.13
2023-03-13T09:38:08.075Z,99517.72
2023-03-13T09:41:05.739Z,99511.53
2023-03-13T09:43:49.067Z,99503.97
2023-03-13T09:46:25.536Z,99506.09
2023-03-13T09:49:00.122Z,99495.31
2023-03-13T09:51:30.834Z,99490.69
2023-03-13T09:54:15.076Z,99486.38
2023-03-13T09:56:51.477Z,99468.28
2023-03-13T09:59:36.970Z,99468.78
2023-03-13T10:02:14.860Z,99468.19
2023-03-13T10:04:51.781Z,99449.22
2023-03-13T10:07:20.864Z,99451.75
2023-03-13T10:09:47.548Z,99460.78
2023-03-13T10:12:21.293Z,99453.94
2023-03-13T10:15:13.554Z,99454.84
2023-03-13T10:17:40.612Z,99447.59
2023-03-13T10:20:10.372Z,99451.41
2023-03-13T10:22:38.376Z,99456.69
2023-03-13T10:25:12.319Z,99452.38
2023-03-13T10:27:53.583Z,99439.91
2023-03-13T10:30:31.288Z,99428.63
2023-03-13T10:33:26.060Z,99419.94
2023-03-13T10:36:04.146Z,99429.41
2023-03-13T10:38:34.302Z,99412.50
2023-03-13T10:41:09.136Z,99424.22
2023-03-13T10:43:35.820Z,99415.88
2023-03-13T10:46:03.996Z,99406.38
2023-03-13T10:48:37.181Z,99406.88
2023-03-13T10:51:03.907Z,99409.03
2023-03-13T10:53:30.590Z,99396.91
2023-03-13T10:56:10.181Z,99380.69
2023-03-13T10:58:47.471Z,99384.25
2023-03-13T11:01:21.707Z,99374.16
2023-03-13T11:03:50.036Z,99374.00
2023-03-13T11:06:35.659Z,99362.53
2023-03-13T11:09:04.415Z,99362.44
2023-03-13T11:11:42.914Z,99363.81
2023-03-13T11:14:16.250Z,99352.00
2023-03-13T11:16:53.902Z,99346.47
2023-03-13T11:19:35.839Z,99333.22
2023-03-13T11:22:23.929Z,99316.28
2023-03-13T11:25:02.165Z,99319.88
2023-03-13T11:27:44.341Z,99319.69
2023-03-13T11:30:27.419Z,99313.09
2023-03-13T11:33:00.550Z,99301.94
2023-03-13T11:35:36.597Z,99304.97
2023-03-13T11:38:09.085Z,99288.97
2023-03-13T11:41:14.826Z,99288.19
2023-03-13T11:44:04.726Z,99275.66
2023-03-13T11:47:03.785Z,99271.72
2023-03-13T11:49:36.201Z,99273.53
2023-03-13T11:52:24.251Z,99257.31
2023-03-13T11:55:20.291Z,99251.34
2023-03-13T11:58:02.708Z,99244.63
2023-03-13T12:00:37.812Z,99246.19
2023-03-13T12:03:28.818Z,99231.47
2023-03-13T12:05:58.832Z,99228.16
2023-03-13T12:08:31.843Z,99218.19
2023-03-13T12:11:12.003Z,99214.72
2023-03-13T12:13:42.379Z,99214.69
2023-03-13T12:16:19.185Z,99202.97
2023-03-13T12:18:46.496Z,99186.50
2023-03-13T12:21:26.454Z,99177.53
2023-03-13T12:24:13.313Z,99175.03
2023-03-13T12:26:54.322Z,99180.00
2023-03-13T12:29:55.634Z,99171.69
2023-03-13T12:32:40.577Z,99161.09
2023-03-13T12:35:19.558Z,99159.63
2023-03-13T12:37:55.035Z,99147.09
2023-03-13T12:40:32.252Z,99150.44
2023-03-13T12:43:10.586Z,99137.88
2023-03-13T12:45:47.241Z,99148.88
2023-03-13T12:48:42.831Z,99128.28
2023-03-13T12:51:46.977Z,99129.25
2023-03-13T12:54:25.640Z,99124.13
2023-03-13T12:57:05.522Z,99115.72
2023-03-13T12:59:43.270Z,99115.94
2023-03-13T13:02:27.318Z,99101.84
2023-03-13T13:04:57.649Z,99100.09
2023-03-13T13:07:28.387Z,99093.69
2023-03-13T13:10:09.994Z,99096.88
2023-03-13T13:12:41.519Z,99091.44
2023-03-13T13:15:17.735Z,99078.84
2023-03-13T13:17:55.286Z,99068.63
2023-03-13T13:20:44.935Z,99053.06
2023-03-13T13:23:37.572Z,99054.38
2023-03-13T13:26:37.341Z,99042.69
2023-03-13T13:29:12.922Z,99027.63
2023-03-13T13:32:00.095Z,99018.34
2023-03-13T13:34:34.395Z,99013.06
2023-03-13T13:37:25.730Z,98992.59
2023-03-13T13:39:54.218Z,98984.59
2023-03-13T13:42:30.554Z,98982.19
2023-03-13T13:45:21.547Z,98978.31
2023-03-13T13:47:50.403Z,98960.22
2023-03-13T13:50:19.874Z,98953.44
2023-03-13T13:52:47.833Z,98952.47
2023-03-13T13:55:26.431Z,98947.03
2023-03-13T13:58:04.260Z,98938.81
2023-03-13T14:00:42.777Z,98932.38
2023-03-13T14:03:30.448Z,98927.88
2023-03-13T14:06:22.780Z,98928.63
2023-03-13T14:08:56.050Z,98911.22
2023-03-13T14:11:37.893Z,98904.72
2023-03-13T14:14:21.762Z,98896.91
2023-03-13T14:16:57.948Z,98901.91
2023-03-13T14:19:30.680Z,98896.81
2023-03-13T14:22:00.399Z,98891.22
2023-03-13T14:24:27.072Z,98881.75
2023-03-13T14:26:53.823Z,98877.22
2023-03-13T14:29:25.838Z,98876.16
2023-03-13T14:31:58.271Z,98869.91
2023-03-13T14:34:27.087Z,98865.84
2023-03-13T14:37:14.935Z,98866.63
2023-03-13T14:39:45.663Z,98849.38
2023-03-13T14:42:16.020Z,98837.41
2023-03-13T14:44:46.495Z,98817.31
2023-03-13T14:47:16.195Z,98813.25
2023-03-13T14:49:45.938Z,98799.97
2023-03-13T14:52:23.936Z,98784.88
2023-03-13T14:55:04.384Z,98788.59
2023-03-13T14:57:32.333Z,98787.09
2023-03-13T15:00:25.868Z,98776.53
2023-03-13T15:03:18.814Z,98767.66
2023-03-13T15:05:46.685Z,98769.59
2023-03-13T15:08:15.651Z,98768.81
2023-03-13T15:10:43.027Z,98754.38
2023-03-13T15:13:38.219Z,98762.47
2023-03-13T15:16:16.591Z,98765.09
2023-03-13T15:18:43.308Z,98756.47
2023-03-13T15:21:12.956Z,98763.84
2023-03-13T15:23:40.980Z,98778.25
2023-03-13T15:26:07.740Z,98761.56
2023-03-13T15:28:34.489Z,98760.63
2023-03-13T15:31:01.164Z,98757.72
2023-03-13T15:33:29.302Z,98754.88
2023-03-13T15:35:56.470Z,98752.59
2023-03-13T15:38:25.704Z,98744.31
2023-03-13T15:40:53.149Z,98753.69
2023-03-13T15:43:21.465Z,98740.84
2023-03-13T15:45:52.774Z,98726.69
2023-03-13T15:48:31.366Z,98729.28
2023-03-13T15:51:04.305Z,98747.84
2023-03-13T15:53:33.473Z,98799.63
2023-03-13T15:56:02.101Z,98800.16
2023-03-13T15:58:29.900Z,98825.13
2023-03-13T16:00:57.631Z,98800.66
2023-03-13T16:03:26.842Z,98805.00
2023-03-13T16:05:54.577Z,98789.78
2023-03-13T16:08:34.699Z,98767.97
2023-03-13T16:11:02.170Z,98776.91
2023-03-13T16:13:28.794Z,98777.38
2023-03-13T16:15:55.473Z,98795.91
2023-03-13T16:18:24.285Z,98788.72
2023-03-13T16:20:51.994Z,98773.53
2023-03-13T16:23:18.593Z,98781.38
2023-03-13T16:25:49.201Z,98768.09
2023-03-13T16:28:16.349Z,98750.91
2023-03-13T16:30:43.792Z,98729.69
2023-03-13T16:33:11.235Z,98753.63
2023-03-13T16:35:38.725Z,98771.94
2023-03-13T16:38:08.356Z,98761.03
2023-03-13T16:40:35.526Z,98766.50
2023-03-13T16:43:02.295Z,98770.63
2023-03-13T16:45:28.995Z,98782.88
2023-03-13T16:47:55.758Z,98750.97
2023-03-13T16:50:34.522Z,98749.34
2023-03-13T16:53:01.501Z,98762.78
2023-03-13T16:55:29.638Z,98743.38
2023-03-13T16:57:58.228Z,98723.22
2023-03-13T17:00:30.265Z,98739.81
2023-03-13T17:02:58.103Z,98781.09
2023-03-13T17:05:26.963Z,98798.84
2023-03-13T17:07:54.148Z,98784.19
2023-03-13T17:10:33.134Z,98769.94
2023-03-13T17:13:00.370Z,98780.59
2023-03-13T17:15:28.645Z,98775.81
2023-03-13T17:17:56.132Z,98757.44
2023-03-13T17:20:28.169Z,98749.59
2023-03-13T17:22:58.720Z,98721.72
2023-03-13T17:25:25.395Z,98717.38
2023-03-13T17:27:52.602Z,98706.88
2023-03-13T17:30:25.419Z,98685.66
2023-03-13T17:32:52.297Z,98689.81
2023-03-13T17:35:20.391Z,98677.94
2023-03-13T17:37:48.363Z,98682.91
2023-03-13T17:40:24.327Z,98672.38
2023-03-13T17:42:51.358Z,98688.84
2023-03-13T17:45:18.791Z,98702.53
2023-03-13T17:47:45.541Z,98685.88
2023-03-13T17:50:22.696Z,98693.84
2023-03-13T17:52:49.514Z,98672.72
2023-03-13T17:55:16.668Z,98651.53
2023-03-13T17:57:43.855Z,98665.72
2023-03-13T18:00:17.513Z,98678.81
2023-03-13T18:02:44.160Z,98680.03
2023-03-13T18:05:10.804Z,98679.53
2023-03-13T18:07:43.944Z,98674.44
2023-03-13T18:10:23.572Z,98694.81
2023-03-13T18:12:51.488Z,98691.56
2023-03-13T18:15:19.848Z,98679.06
2023-03-13T18:17:46.795Z,98661.56
2023-03-13T18:20:19.399Z,98660.69
2023-03-13T18:22:46.770Z,98637.31
2023-03-13T18:25:13.988Z,98608.81
2023-03-13T18:27:41.284Z,98596.28
2023-03-13T18:30:20.253Z,98613.91
2023-03-13T18:32:47.201Z,98645.69
2023-03-13T18:35:14.547Z,98666.41
2023-03-13T18:37:43.758Z,98670.75
2023-03-13T18:40:17.895Z,98693.72
2023-03-13T18:42:44.883Z,98690.63
2023-03-13T18:45:16.645Z,98689.25
2023-03-13T18:47:43.342Z,98700.53
2023-03-13T18:50:25.090Z,98692.44
2023-03-13T18:52:55.159Z,98678.84
2023-03-13T18:55:26.545Z,98680.44
2023-03-13T18:57:54.437Z,98676.72
2023-03-13T19:00:24.818Z,98677.25
2023-03-13T19:02:51.675Z,98682.25
2023-03-13T19:05:19.056Z,98707.34
2023-03-13T19:07:46.785Z,98760.13
2023-03-13T19:10:28.248Z,98801.47
2023-03-13T19:12:56.496Z,98829.09
2023-03-13T19:15:26.192Z,98830.09
2023-03-13T19:17:54.082Z,98858.97
2023-03-13T19:20:23.293Z,98846.09
2023-03-13T19:22:50.013Z,98837.22
2023-03-13T19:25:17.261Z,98833.09
2023-03-13T19:27:45.069Z,98836.88
2023-03-13T19:30:29.856Z,98837.09
2023-03-13T19:32:56.668Z,98833.94
2023-03-13T19:35:23.612Z,98827.50
2023-03-13T19:37:50.338Z,98811.16
2023-03-13T19:40:24.284Z,98810.94
2023-03-13T19:42:51.042Z,98813.53
2023-03-13T19:45:18.905Z,98815.75
2023-03-13T19:47:53.391Z,98814.84
2023-03-13T19:50:24.168Z,98820.63
2023-03-13T19:52:51.058Z,98817.00
2023-03-13T19:55:17.834Z,98817.81
2023-03-13T19:57:44.600Z,98817.00
2023-03-13T20:00:19.111Z,98800.63
2023-03-13T20:02:46.008Z,98764.03
2023-03-13T20:05:12.746Z,98757.00
2023-03-13T20:07:39.576Z,98722.88
2023-03-13T20:10:07.059Z,98685.56
2023-03-13T20:12:35.173Z,98645.59
2023-03-13T20:15:01.949Z,98667.84
2023-03-13T20:17:29.925Z,98678.72
2023-03-13T20:19:56.585Z,98685.53
2023-03-13T20:22:23.464Z,98684.31
2023-03-13T20:24:50.084Z,98666.75
2023-03-13T20:27:16.980Z,98664.19
2023-03-13T20:29:43.809Z,98667.63
2023-03-13T20:32:11.387Z,98653.19
2023-03-13T20:34:38.206Z,98633.50
2023-03-13T20:37:05.437Z,98630.91
2023-03-13T20:39:34.145Z,98613.09
2023-03-13T20:42:03.113Z,98617.91
2023-03-13T20:44:30.174Z,98614.81
2023-03-13T20:46:57.610Z,98612.41
2023-03-13T20:49:24.442Z,98626.59
2023-03-13T20:51:51.170Z,98631.75
2023-03-13T20:54:17.831Z,98641.47
2023-03-13T20:56:44.498Z,98652.53
2023-03-13T20:59:11.581Z,98655.94
2023-03-13T21:01:38.378Z,98641.31
2023-03-13T21:04:12.185Z,98637.22
2023-03-13T21:06:38.945Z,98646.25
2023-03-13T21:09:05.670Z,98650.59
2023-03-13T21:11:33.660Z,98665.19
2023-03-13T21:14:00.668Z,98660.88
2023-03-13T21:16:31.598Z,98661.31
2023-03-13T21:19:09.135Z,98668.03
2023-03-13T21:21:35.980Z,98674.97
2023-03-13T21:24:02.925Z,98671.25
2023-03-13T21:26:29.724Z,98667.81
2023-03-13T21:28:56.417Z,98676.56
2023-03-13T21:31:23.200Z,98684.66
2023-03-13T21:33:50.386Z,98683.81
2023-03-13T21:36:20.872Z,98679.09
2023-03-13T21:38:49.416Z,98680.97
2023-03-13T21:41:19.056Z,98678.09
2023-03-13T21:43:48.694Z,98684.19
2023-03-13T21:46:25.280Z,98673.63
2023-03-13T21:48:53.015Z,98676.09
2023-03-13T21:51:19.867Z,98670.59
2023-03-13T21:53:49.886Z,98670.63
2023-03-13T21:56:17.258Z,98657.47
2023-03-13T21:58:45.411Z,98649.81
2023-03-13T22:01:13.658Z,98642.34
2023-03-13T22:03:41.081Z,98648.59
2023-03-13T22:06:22.529Z,98644.00
2023-03-13T22:08:50.896Z,98642.16
2023-03-13T22:11:18.393Z,98633.75
2023-03-13T22:13:45.122Z,98627.13
2023-03-13T22:16:14.989Z,98621.59
2023-03-13T22:18:44.733Z,98629.16
2023-03-13T22:21:11.776Z,98648.31
2023-03-13T22:23:38.929Z,98659.94
2023-03-13T22:26:06.120Z,98679.56
2023-03-13T22:28:33.013Z,98680.38
2023-03-13T22:31:01.294Z,98678.47
2023-03-13T22:33:28.086Z,98685.22
2023-03-13T22:35:54.867Z,98669.31
2023-03-13T22:38:22.072Z,98667.53
2023-03-13T22:40:57.285Z,98656.50
2023-03-13T22:43:23.942Z,98650.22
2023-03-13T22:45:50.631Z,98648.28
2023-03-13T22:48:17.609Z,98636.22
2023-03-13T22:50:44.365Z,98622.25
2023-03-13T22:53:11.484Z,98610.97
2023-03-13T22:55:38.095Z,98621.50
2023-03-13T22:58:05.510Z,98599.78
2023-03-13T23:00:32.690Z,98646.97
2023-03-13T23:02:59.358Z,98650.47
2023-03-13T23:05:26.087Z,98673.03
2023-03-13T23:07:52.697Z,98657.72
2023-03-13T23:10:19.538Z,98660.72
2023-03-13T23:12:46.146Z,98651.81
2023-03-13T23:15:12.911Z,98664.13
2023-03-13T23:17:39.712Z,98677.44
2023-03-13T23:20:16.196Z,98680.47
2023-03-13T23:22:44.767Z,98693.69
2023-03-13T23:25:12.813Z,98692.66
2023-03-13T23:27:40.908Z,98695.06
2023-03-13T23:30:14.894Z,98688.53
2023-03-13T23:32:44.502Z,98715.34
2023-03-13T23:35:12.846Z,98720.06
2023-03-13T23:37:39.849Z,98724.34
2023-03-13T23:40:08.458Z,98726.75
2023-03-13T23:42:35.244Z,98717.38
2023-03-13T23:45:05.672Z,98728.41
2023-03-13T23:47:33.272Z,98734.28
2023-03-13T23:49:59.983Z,98741.50
2023-03-13T23:52:26.753Z,98733.81
2023-03-13T23:54:53.613Z,98727.81
2023-03-13T23:57:20.225Z,98715.50
2023-03-13T23:59:46.938Z,98712.88
